Flamingo Daze — ZGAT6 — position and weather

sailwx.info

Track history (hours):
 
Tides and Currents Weather Stations Pressure Air Temp Water Temp Dewpoint Dewpoint Depression Visibility Wind Speed Wind Dir Waves Ship Positions

Flamingo Daze

Last reported at 2018-Jan-19 12:08 UTC. Time now 2018-Feb-17 19:35 UTC.
Position N 25°06' W 077°23'.
Warning: this ship's position is 29 days out of date.

Type: Pleasure craft. MMSI: 319042700.

Date/timePositionNaut miles runAvg speedWind from/ knotsBaromVisibWave heightAir tempDewpointWater temp
2018-Jan-19 12:08N 25°06' W 077°23'210.5
2018-Jan-19 11:59N 25°06' W 077°22'2 1.0
2018-Jan-19 09:44N 25°05' W 077°19'0 0.0
2018-Jan-19 08:26N 25°05' W 077°19'0 0.0
2018-Jan-19 05:32N 25°05' W 077°19'0 0.1
2018-Jan-19 05:26N 25°05' W 077°19'0 0.0
2018-Jan-19 04:02N 25°05' W 077°19'0 0.0
2018-Jan-19 03:50N 25°05' W 077°19'0 0.0
2018-Jan-19 03:26N 25°05' W 077°19'0 0.0
2018-Jan-19 01:50N 25°05' W 077°19'0 0.0
2018-Jan-18 21:56N 25°05' W 077°19'0 0.0
2018-Jan-18 19:26N 25°05' W 077°19'0 0.0
2018-Jan-18 18:50N 25°05' W 077°19'0 0.0
2018-Jan-18 18:14N 25°05' W 077°19'0 0.0
2018-Jan-18 17:38N 25°05' W 077°19'0 0.0
2018-Jan-18 17:26N 25°05' W 077°19'0 0.0
2018-Jan-18 12:08N 25°05' W 077°19'0 0.0
2018-Jan-18 04:26N 25°05' W 077°19'0 0.0
2018-Jan-18 02:56N 25°05' W 077°19'0 0.0
2018-Jan-18 02:14N 25°05' W 077°19'0 0.0
2018-Jan-18 00:59N 25°05' W 077°19'  
2018-Jan-09 16:49N 26°50' W 080°03'0 0.1
2018-Jan-09 16:11N 26°50' W 080°03'1 5.7
2018-Jan-09 16:00N 26°49' W 080°03'3 6.4
2018-Jan-09 15:30N 26°46' W 080°02'3623.3
2018-Jan-09 13:58N 26°11' W 080°04'5 9.8
2018-Jan-09 13:28N 26°07' W 080°07'1 1.1
2018-Jan-09 12:51N 26°07' W 080°06'0 0.0
2018-Jan-09 12:24N 26°07' W 080°06'  
Track history (hours):
 
Tides and Currents Weather Stations Pressure Air Temp Water Temp Dewpoint Dewpoint Depression Visibility Wind Speed Wind Dir Waves Ship Positions

Flamingo Daze

Last reported at 2018-Jan-19 12:08 UTC. Time now 2018-Feb-17 19:35 UTC.
Position N 25°06' W 077°23'.
Warning: this ship's position is 29 days out of date.

Type: Pleasure craft. MMSI: 319042700.

Date/timePositionNaut miles runAvg speedWind from/ knotsBaromVisibWave heightAir tempDewpointWater temp
2018-Jan-19 12:08N 25°06' W 077°23'210.5
2018-Jan-19 11:59N 25°06' W 077°22'2 1.0
2018-Jan-19 09:44N 25°05' W 077°19'0 0.0
2018-Jan-19 08:26N 25°05' W 077°19'0 0.0
2018-Jan-19 05:32N 25°05' W 077°19'0 0.1
2018-Jan-19 05:26N 25°05' W 077°19'0 0.0
2018-Jan-19 04:02N 25°05' W 077°19'0 0.0
2018-Jan-19 03:50N 25°05' W 077°19'0 0.0
2018-Jan-19 03:26N 25°05' W 077°19'0 0.0
2018-Jan-19 01:50N 25°05' W 077°19'0 0.0
2018-Jan-18 21:56N 25°05' W 077°19'0 0.0
2018-Jan-18 19:26N 25°05' W 077°19'0 0.0
2018-Jan-18 18:50N 25°05' W 077°19'0 0.0
2018-Jan-18 18:14N 25°05' W 077°19'0 0.0
2018-Jan-18 17:38N 25°05' W 077°19'0 0.0
2018-Jan-18 17:26N 25°05' W 077°19'0 0.0
2018-Jan-18 12:08N 25°05' W 077°19'0 0.0
2018-Jan-18 04:26N 25°05' W 077°19'0 0.0
2018-Jan-18 02:56N 25°05' W 077°19'0 0.0
2018-Jan-18 02:14N 25°05' W 077°19'0 0.0
2018-Jan-18 00:59N 25°05' W 077°19'  
2018-Jan-09 16:49N 26°50' W 080°03'0 0.1
2018-Jan-09 16:11N 26°50' W 080°03'1 5.7
2018-Jan-09 16:00N 26°49' W 080°03'3 6.4
2018-Jan-09 15:30N 26°46' W 080°02'3623.3
2018-Jan-09 13:58N 26°11' W 080°04'5 9.8
2018-Jan-09 13:28N 26°07' W 080°07'1 1.1
2018-Jan-09 12:51N 26°07' W 080°06'0 0.0
2018-Jan-09 12:24N 26°07' W 080°06'  

Dump ship's entire track history